Time;durP1;ratioP1;P1;durP2;ratioP2;P2;SDS_P1;SDS_P2;PMS_P1;PMS_P2;Temp;Humidity;BMP_temperature;BMP_pressure;BME280_temperature;BME280_humidity;BME280_pressure;Samples;Min_cycle;Max_cycle;Signal;HPM_P1;HPM_P2
2020/12/07 00:00:59;;;;;;;18.13;12.37;;;;;;;;;;5105829;28;20503;-56
2020/12/07 00:03:26;;;;;;;17.47;12.03;;;;;;;;;;5100802;28;20681;-57
2020/12/07 00:05:52;;;;;;;15.00;12.00;;;;;;;;;;5100793;28;20414;-57
2020/12/07 00:08:18;;;;;;;15.60;12.93;;;;;;;;;;5093867;28;20861;-57
2020/12/07 00:10:44;;;;;;;16.97;12.43;;;;;;;;;;5085027;28;20270;-57
2020/12/07 00:13:10;;;;;;;16.40;11.87;;;;;;;;;;5113456;28;20176;-57
2020/12/07 00:15:36;;;;;;;14.20;11.57;;;;;;;;;;5101448;28;20283;-58
2020/12/07 00:18:02;;;;;;;14.27;11.70;;;;;;;;;;5092874;28;20313;-57
2020/12/07 00:20:28;;;;;;;14.83;12.37;;;;;;;;;;5092544;28;20635;-57
2020/12/07 00:22:56;;;;;;;17.37;12.33;;;;;;;;;;5093713;28;20979;-57
2020/12/07 00:25:22;;;;;;;14.47;12.10;;;;;;;;;;5094614;28;20592;-57
2020/12/07 00:27:48;;;;;;;14.63;11.00;;;;;;;;;;5111674;28;20199;-58
2020/12/07 00:30:14;;;;;;;12.67;10.87;;;;;;;;;;5113165;28;20174;-57
2020/12/07 00:32:40;;;;;;;14.67;11.60;;;;;;;;;;5112577;28;20652;-58
2020/12/07 00:35:06;;;;;;;12.40;10.43;;;;;;;;;;5113077;28;20182;-60
2020/12/07 00:37:32;;;;;;;11.40;9.50;;;;;;;;;;5113101;28;20175;-57
2020/12/07 00:39:58;;;;;;;12.23;10.57;;;;;;;;;;5098598;28;20430;-57
2020/12/07 00:42:24;;;;;;;13.30;10.50;;;;;;;;;;5091585;28;20421;-57
2020/12/07 00:44:50;;;;;;;14.47;10.50;;;;;;;;;;5089802;28;20425;-57
2020/12/07 00:47:16;;;;;;;12.70;11.27;;;;;;;;;;5092215;28;20253;-58
2020/12/07 00:49:42;;;;;;;14.53;11.47;;;;;;;;;;5092116;28;20406;-58
2020/12/07 00:52:08;;;;;;;11.93;10.40;;;;;;;;;;5110668;28;20290;-57
2020/12/07 00:54:34;;;;;;;14.93;11.73;;;;;;;;;;5106457;27;20180;-57
2020/12/07 00:57:01;;;;;;;13.50;10.27;;;;;;;;;;5091502;28;20417;-57
2020/12/07 00:59:28;;;;;;;12.50;10.60;;;;;;;;;;5091216;28;20865;-58
2020/12/07 01:01:55;;;;;;;13.43;11.03;;;;;;;;;;5097531;28;20471;-58
2020/12/07 01:04:21;;;;;;;11.97;9.87;;;;;;;;;;5103027;27;20180;-60
2020/12/07 01:06:47;;;;;;;13.17;10.63;;;;;;;;;;5093102;28;20556;-57
2020/12/07 01:09:14;;;;;;;11.70;10.33;;;;;;;;;;5094120;28;20444;-58
2020/12/07 01:11:44;;;;;;;13.63;10.23;;;;;;;;;;5112272;28;20775;-58
2020/12/07 01:14:11;;;;;;;14.47;11.00;;;;;;;;;;5112074;28;20175;-58
2020/12/07 01:16:37;;;;;;;13.00;11.10;;;;;;;;;;5094785;28;20428;-59
2020/12/07 01:19:07;;;;;;;16.40;12.50;;;;;;;;;;5091408;28;20180;-57
2020/12/07 01:21:33;;;;;;;13.03;11.63;;;;;;;;;;5073392;28;20259;-57
2020/12/07 01:24:00;;;;;;;12.43;10.57;;;;;;;;;;5114655;27;20763;-57
2020/12/07 01:26:26;;;;;;;13.53;11.10;;;;;;;;;;5113989;27;20408;-57
2020/12/07 01:28:52;;;;;;;16.00;11.47;;;;;;;;;;5132656;27;20484;-58
2020/12/07 01:31:18;;;;;;;13.00;10.73;;;;;;;;;;5130301;27;20416;-57
2020/12/07 01:33:45;;;;;;;13.67;10.30;;;;;;;;;;5094074;28;20452;-60
2020/12/07 01:36:12;;;;;;;12.53;10.13;;;;;;;;;;5091577;28;20168;-60
2020/12/07 01:38:38;;;;;;;12.20;10.70;;;;;;;;;;5091475;28;20421;-60
2020/12/07 01:41:04;;;;;;;12.27;10.57;;;;;;;;;;5091307;28;20433;-61
2020/12/07 01:43:30;;;;;;;11.97;10.13;;;;;;;;;;5100341;28;20800;-61
2020/12/07 01:45:56;;;;;;;12.70;10.63;;;;;;;;;;5111873;28;20903;-61
2020/12/07 01:48:25;;;;;;;12.80;10.83;;;;;;;;;;5110435;28;20510;-61
2020/12/07 01:50:51;;;;;;;12.33;10.20;;;;;;;;;;5100618;28;20411;-61
2020/12/07 01:53:17;;;;;;;13.97;10.83;;;;;;;;;;5105845;28;20444;-61
2020/12/07 01:55:44;;;;;;;13.00;11.10;;;;;;;;;;5111358;28;20457;-60
2020/12/07 01:58:10;;;;;;;12.03;10.23;;;;;;;;;;5098636;28;20430;-60
2020/12/07 02:00:36;;;;;;;15.07;11.10;;;;;;;;;;5091347;28;20186;-61
2020/12/07 02:03:02;;;;;;;13.00;10.90;;;;;;;;;;5090875;28;20457;-61
2020/12/07 02:05:29;;;;;;;12.43;9.93;;;;;;;;;;5073419;28;20203;-60
2020/12/07 02:08:14;;;;;;;12.03;10.37;;;;;;;;;;5091063;28;20481;-60
2020/12/07 02:10:40;;;;;;;12.30;10.90;;;;;;;;;;5091126;28;20175;-63
2020/12/07 02:13:06;;;;;;;12.23;10.27;;;;;;;;;;5093441;28;20414;-61
2020/12/07 02:15:32;;;;;;;11.90;10.70;;;;;;;;;;5099114;28;20417;-61
2020/12/07 02:17:58;;;;;;;12.37;10.37;;;;;;;;;;5111319;28;20175;-61
2020/12/07 02:20:24;;;;;;;12.07;9.93;;;;;;;;;;5103340;28;20198;-61
2020/12/07 02:22:51;;;;;;;12.27;9.60;;;;;;;;;;5097081;28;20217;-61
2020/12/07 02:25:19;;;;;;;14.67;11.70;;;;;;;;;;5113915;28;20175;-61
2020/12/07 02:27:47;;;;;;;14.23;9.90;;;;;;;;;;5105073;28;20202;-60
2020/12/07 02:30:15;;;;;;;11.73;10.30;;;;;;;;;;5095201;28;20174;-60
2020/12/07 02:32:41;;;;;;;11.43;10.23;;;;;;;;;;5107465;28;20430;-61
2020/12/07 02:35:07;;;;;;;15.23;11.07;;;;;;;;;;5094737;28;20175;-61
2020/12/07 02:37:33;;;;;;;12.17;10.70;;;;;;;;;;5094861;28;20410;-61
2020/12/07 02:39:59;;;;;;;11.50;10.33;;;;;;;;;;5077961;28;20578;-61
2020/12/07 02:42:25;;;;;;;12.87;10.63;;;;;;;;;;5094808;28;20241;-60
2020/12/07 02:44:51;;;;;;;12.27;10.97;;;;;;;;;;5109377;28;20178;-60
2020/12/07 02:47:17;;;;;;;14.00;11.07;;;;;;;;;;5111937;28;20238;-61
2020/12/07 02:49:43;;;;;;;13.73;10.90;;;;;;;;;;5115051;28;20262;-61
2020/12/07 02:52:09;;;;;;;12.90;11.07;;;;;;;;;;5115633;27;20183;-61
2020/12/07 02:54:35;;;;;;;12.07;10.73;;;;;;;;;;5110493;28;20936;-60
2020/12/07 02:57:01;;;;;;;13.67;11.50;;;;;;;;;;5094132;28;20211;-61
2020/12/07 02:59:27;;;;;;;12.80;10.43;;;;;;;;;;5094283;28;20172;-61
2020/12/07 03:01:53;;;;;;;16.17;11.73;;;;;;;;;;5093407;28;20216;-63
2020/12/07 03:04:19;;;;;;;14.73;11.87;;;;;;;;;;5114323;28;20186;-60
2020/12/07 03:06:45;;;;;;;12.77;10.87;;;;;;;;;;5111987;28;20174;-60
2020/12/07 03:09:11;;;;;;;13.77;11.00;;;;;;;;;;5093604;28;20536;-61
2020/12/07 03:11:37;;;;;;;13.73;11.47;;;;;;;;;;5093972;28;20180;-61
2020/12/07 03:14:03;;;;;;;15.03;11.97;;;;;;;;;;5094822;28;20249;-61
2020/12/07 03:16:29;;;;;;;13.90;11.97;;;;;;;;;;5093875;28;20200;-61
2020/12/07 03:18:55;;;;;;;14.43;11.77;;;;;;;;;;5094122;28;20426;-60
2020/12/07 03:21:21;;;;;;;15.03;12.20;;;;;;;;;;5094137;28;20448;-61
2020/12/07 03:23:47;;;;;;;14.97;11.80;;;;;;;;;;5110878;27;20178;-60
2020/12/07 03:26:13;;;;;;;14.50;11.43;;;;;;;;;;5135004;27;20636;-61
2020/12/07 03:28:39;;;;;;;15.50;12.33;;;;;;;;;;5134871;27;20194;-60
2020/12/07 03:31:05;;;;;;;14.00;11.53;;;;;;;;;;5101159;27;20624;-61
2020/12/07 03:33:31;;;;;;;15.03;11.90;;;;;;;;;;5112549;28;20263;-61
2020/12/07 03:35:57;;;;;;;13.20;10.80;;;;;;;;;;5094381;28;20489;-61
2020/12/07 03:38:23;;;;;;;12.90;11.47;;;;;;;;;;5093973;28;20524;-61
2020/12/07 03:40:49;;;;;;;18.90;14.00;;;;;;;;;;5109555;28;20183;-61
2020/12/07 03:43:15;;;;;;;13.27;11.07;;;;;;;;;;5093822;28;20199;-61
2020/12/07 03:45:43;;;;;;;14.50;11.77;;;;;;;;;;5093604;28;20512;-61
2020/12/07 03:48:09;;;;;;;15.27;12.57;;;;;;;;;;5094015;28;20886;-61
2020/12/07 03:50:35;;;;;;;16.57;12.83;;;;;;;;;;5075421;28;20289;-60
2020/12/07 03:53:01;;;;;;;12.40;11.10;;;;;;;;;;5116649;27;20214;-61
2020/12/07 03:55:27;;;;;;;17.07;13.77;;;;;;;;;;5113636;28;20409;-61
2020/12/07 03:57:53;;;;;;;18.50;13.57;;;;;;;;;;5113763;28;20401;-61
2020/12/07 04:00:19;;;;;;;15.27;12.57;;;;;;;;;;5092950;28;20414;-60
2020/12/07 04:02:45;;;;;;;15.20;13.30;;;;;;;;;;5092965;28;20230;-61
2020/12/07 04:05:18;;;;;;;18.47;13.67;;;;;;;;;;5075508;28;20187;-61
2020/12/07 04:07:44;;;;;;;20.27;14.00;;;;;;;;;;5093140;28;20437;-61
2020/12/07 04:10:10;;;;;;;19.07;13.70;;;;;;;;;;5112522;28;20663;-60
2020/12/07 04:12:36;;;;;;;16.70;13.47;;;;;;;;;;5095173;28;20421;-61
2020/12/07 04:15:03;;;;;;;17.63;14.93;;;;;;;;;;5102642;28;20176;-60
2020/12/07 04:17:29;;;;;;;21.17;15.20;;;;;;;;;;5093115;28;20424;-61
2020/12/07 04:19:55;;;;;;;16.60;14.13;;;;;;;;;;5092854;28;20461;-62
2020/12/07 04:22:21;;;;;;;18.57;15.23;;;;;;;;;;5086364;28;20450;-60
2020/12/07 04:24:47;;;;;;;16.30;13.80;;;;;;;;;;5083133;28;20190;-63
2020/12/07 04:27:13;;;;;;;17.67;13.90;;;;;;;;;;5113381;28;20523;-60
2020/12/07 04:29:39;;;;;;;20.13;14.73;;;;;;;;;;5094524;28;20191;-61
2020/12/07 04:32:05;;;;;;;19.17;15.60;;;;;;;;;;5092589;28;20192;-61
2020/12/07 04:34:31;;;;;;;18.43;14.10;;;;;;;;;;5092547;28;20413;-60
2020/12/07 04:36:57;;;;;;;21.17;15.47;;;;;;;;;;5074545;28;20172;-61
2020/12/07 04:39:23;;;;;;;20.03;15.20;;;;;;;;;;5093318;28;20421;-61
2020/12/07 04:41:49;;;;;;;17.20;14.50;;;;;;;;;;5092453;28;20481;-61
2020/12/07 04:44:16;;;;;;;19.53;17.00;;;;;;;;;;5104141;28;20177;-61
2020/12/07 04:46:44;;;;;;;21.87;17.57;;;;;;;;;;5112109;28;20504;-60
2020/12/07 04:49:10;;;;;;;22.97;17.63;;;;;;;;;;5111736;28;20915;-61
2020/12/07 04:51:37;;;;;;;21.70;17.30;;;;;;;;;;5115865;27;20447;-61
2020/12/07 04:54:03;;;;;;;22.50;17.40;;;;;;;;;;5131377;27;20408;-60
2020/12/07 04:56:31;;;;;;;20.23;17.63;;;;;;;;;;5117706;27;20950;-61
2020/12/07 04:58:57;;;;;;;21.37;17.87;;;;;;;;;;5091643;28;20515;-61
2020/12/07 05:01:23;;;;;;;22.27;18.27;;;;;;;;;;5110072;28;20419;-61
2020/12/07 05:03:49;;;;;;;23.33;18.13;;;;;;;;;;5107681;28;20428;-61
2020/12/07 05:06:19;;;;;;;21.33;17.20;;;;;;;;;;5092399;28;20437;-61
2020/12/07 05:08:45;;;;;;;23.93;17.73;;;;;;;;;;5107093;28;20203;-61
2020/12/07 05:11:11;;;;;;;21.77;17.77;;;;;;;;;;5129899;27;20175;-61
2020/12/07 05:13:44;;;;;;;21.63;16.97;;;;;;;;;;5107281;27;20416;-61
2020/12/07 05:16:11;;;;;;;20.93;17.47;;;;;;;;;;5092580;28;20402;-61
2020/12/07 05:18:39;;;;;;;20.23;17.23;;;;;;;;;;5110663;28;20401;-61
2020/12/07 05:21:05;;;;;;;23.13;17.87;;;;;;;;;;5115481;27;20451;-61
2020/12/07 05:23:36;;;;;;;22.87;19.17;;;;;;;;;;5099837;28;20228;-60
2020/12/07 05:26:02;;;;;;;19.80;17.57;;;;;;;;;;5099683;28;20463;-60
2020/12/07 05:28:34;;;;;;;23.17;18.90;;;;;;;;;;5092025;28;20453;-61
2020/12/07 05:31:00;;;;;;;23.20;18.53;;;;;;;;;;5106549;27;20444;-60
2020/12/07 05:33:26;;;;;;;21.13;17.90;;;;;;;;;;5098473;28;20426;-60
2020/12/07 05:35:53;;;;;;;22.47;18.57;;;;;;;;;;5105458;28;20721;-61
2020/12/07 05:38:19;;;;;;;23.03;19.20;;;;;;;;;;5091997;28;20413;-62
2020/12/07 05:40:46;;;;;;;22.43;18.13;;;;;;;;;;5094495;28;20917;-61
2020/12/07 05:43:13;;;;;;;22.47;19.07;;;;;;;;;;5090575;28;20402;-60
2020/12/07 05:45:40;;;;;;;24.63;19.30;;;;;;;;;;5072391;28;20825;-60
2020/12/07 05:48:07;;;;;;;24.13;20.03;;;;;;;;;;5090479;28;20457;-61
2020/12/07 05:50:38;;;;;;;23.87;19.97;;;;;;;;;;5095796;28;20426;-61
2020/12/07 05:53:04;;;;;;;22.97;19.30;;;;;;;;;;5110606;28;20405;-61
2020/12/07 05:55:30;;;;;;;25.80;20.00;;;;;;;;;;5116126;27;20178;-61
2020/12/07 05:57:56;;;;;;;24.87;20.93;;;;;;;;;;5088347;28;20512;-61
2020/12/07 06:00:23;;;;;;;22.20;19.40;;;;;;;;;;5106595;28;20556;-61
2020/12/07 06:02:53;;;;;;;23.63;19.67;;;;;;;;;;5081325;28;20287;-61
2020/12/07 06:05:23;;;;;;;23.33;19.27;;;;;;;;;;5108846;28;20266;-60
2020/12/07 06:07:53;;;;;;;23.30;19.23;;;;;;;;;;5110903;28;20440;-60
2020/12/07 06:10:20;;;;;;;23.47;19.17;;;;;;;;;;5111203;28;20393;-60
2020/12/07 06:12:48;;;;;;;23.97;18.90;;;;;;;;;;5102384;28;20414;-60
2020/12/07 06:15:19;;;;;;;22.90;18.43;;;;;;;;;;5106138;28;20183;-63
2020/12/07 06:17:47;;;;;;;25.90;19.43;;;;;;;;;;5110989;28;20408;-60
2020/12/07 06:20:25;;;;;;;22.70;17.57;;;;;;;;;;5112489;28;20514;-61
2020/12/07 06:22:55;;;;;;;24.50;19.40;;;;;;;;;;5131268;28;20163;-60
2020/12/07 06:25:21;;;;;;;24.70;19.57;;;;;;;;;;5130722;28;20401;-60
2020/12/07 06:27:48;;;;;;;26.83;19.27;;;;;;;;;;5131018;28;20451;-60
2020/12/07 06:30:17;;;;;;;24.13;18.77;;;;;;;;;;5119888;28;20929;-60
2020/12/07 06:32:45;;;;;;;27.13;21.00;;;;;;;;;;5086461;28;20182;-61
2020/12/07 06:35:13;;;;;;;27.07;20.87;;;;;;;;;;5089657;28;20175;-60
2020/12/07 06:37:43;;;;;;;27.90;20.43;;;;;;;;;;5090189;28;20196;-61
2020/12/07 06:40:09;;;;;;;27.80;19.97;;;;;;;;;;5089778;28;20580;-60
2020/12/07 06:42:42;;;;;;;24.97;20.30;;;;;;;;;;5090044;28;20946;-60
2020/12/07 06:45:09;;;;;;;26.40;20.00;;;;;;;;;;5089693;28;20409;-60
2020/12/07 06:47:39;;;;;;;24.70;19.37;;;;;;;;;;5091025;28;20452;-61
2020/12/07 06:50:13;;;;;;;25.27;18.43;;;;;;;;;;5079839;28;20431;-62
2020/12/07 06:52:41;;;;;;;23.67;19.07;;;;;;;;;;5109547;28;20535;-60
2020/12/07 06:55:09;;;;;;;22.00;18.43;;;;;;;;;;5131203;28;20781;-60
2020/12/07 06:57:48;;;;;;;23.10;19.30;;;;;;;;;;5130920;28;20261;-63
2020/12/07 07:00:24;;;;;;;23.53;18.07;;;;;;;;;;5112104;28;20420;-61
2020/12/07 07:02:51;;;;;;;28.23;19.23;;;;;;;;;;5130395;27;21420;-61
2020/12/07 07:05:18;;;;;;;22.67;18.70;;;;;;;;;;5130716;28;20408;-60
2020/12/07 07:07:44;;;;;;;25.57;19.07;;;;;;;;;;5115093;28;20449;-60
2020/12/07 07:10:11;;;;;;;24.73;17.90;;;;;;;;;;5110382;28;20401;-60
2020/12/07 07:12:38;;;;;;;25.07;20.00;;;;;;;;;;5094679;28;20809;-60
2020/12/07 07:15:05;;;;;;;22.70;18.40;;;;;;;;;;5102066;28;20444;-60
2020/12/07 07:17:32;;;;;;;22.03;18.03;;;;;;;;;;5108008;28;20753;-60
2020/12/07 07:19:59;;;;;;;20.93;16.70;;;;;;;;;;5105150;27;20432;-60
2020/12/07 07:22:25;;;;;;;24.53;19.00;;;;;;;;;;5101410;27;20430;-60
2020/12/07 07:25:42;;;;;;;20.57;16.87;;;;;;;;;;5108123;28;20440;-61
2020/12/07 07:30:23;;;;;;;23.37;18.30;;;;;;;;;;5105122;28;20429;-60
2020/12/07 07:32:51;;;;;;;23.73;18.33;;;;;;;;;;5106156;28;20789;-61
2020/12/07 07:35:18;;;;;;;23.03;18.50;;;;;;;;;;5112066;27;20408;-61
2020/12/07 07:37:44;;;;;;;20.87;17.50;;;;;;;;;;5134093;27;20400;-60
2020/12/07 07:40:15;;;;;;;25.43;16.90;;;;;;;;;;5120560;27;22365;-61
2020/12/07 07:42:49;;;;;;;22.63;17.50;;;;;;;;;;5110813;27;20428;-61
2020/12/07 07:45:19;;;;;;;21.07;16.73;;;;;;;;;;5101758;28;20425;-61
2020/12/07 07:50:44;;;;;;;23.17;17.47;;;;;;;;;;5106588;28;20521;-61
2020/12/07 08:00:06;;;;;;;20.27;15.83;;;;;;;;;;5051769;28;20456;-63
2020/12/07 08:03:11;;;;;;;21.33;16.33;;;;;;;;;;5095640;27;20843;-61
2020/12/07 08:15:55;;;;;;;18.83;13.70;;;;;;;;;;5073733;28;20810;-63
2020/12/07 08:18:35;;;;;;;19.60;15.07;;;;;;;;;;5092508;28;20448;-62
2020/12/07 08:21:02;;;;;;;17.20;13.97;;;;;;;;;;5121688;27;20468;-62
2020/12/07 08:23:31;;;;;;;19.30;14.33;;;;;;;;;;5102445;28;20413;-61
2020/12/07 08:25:58;;;;;;;20.10;14.17;;;;;;;;;;5091939;28;20452;-61
2020/12/07 08:28:29;;;;;;;18.07;13.67;;;;;;;;;;5092167;28;20979;-61
2020/12/07 08:30:59;;;;;;;18.17;14.27;;;;;;;;;;5077675;28;20442;-61
2020/12/07 08:33:25;;;;;;;17.87;13.23;;;;;;;;;;5074492;28;20437;-61
2020/12/07 08:35:51;;;;;;;18.57;14.23;;;;;;;;;;5092736;28;20414;-64
2020/12/07 08:38:24;;;;;;;20.10;14.67;;;;;;;;;;5108469;28;20428;-61
2020/12/07 08:40:50;;;;;;;17.60;13.53;;;;;;;;;;5107462;28;20417;-62
2020/12/07 08:43:16;;;;;;;19.77;14.30;;;;;;;;;;5098979;28;20430;-61
2020/12/07 08:45:46;;;;;;;21.17;13.80;;;;;;;;;;5111760;28;20412;-60
2020/12/07 08:48:13;;;;;;;18.30;13.93;;;;;;;;;;5093327;28;21010;-61
2020/12/07 08:50:39;;;;;;;19.77;14.63;;;;;;;;;;5125669;27;20435;-61
2020/12/07 08:53:05;;;;;;;18.37;13.47;;;;;;;;;;5131362;27;20427;-61
2020/12/07 08:55:31;;;;;;;18.87;13.77;;;;;;;;;;5113715;27;20174;-61
2020/12/07 08:57:57;;;;;;;18.03;13.67;;;;;;;;;;5132293;27;20408;-61
2020/12/07 09:00:23;;;;;;;18.87;15.10;;;;;;;;;;5122747;27;20417;-61
2020/12/07 09:02:49;;;;;;;19.97;13.83;;;;;;;;;;5111387;28;20674;-61
2020/12/07 09:05:15;;;;;;;19.83;13.80;;;;;;;;;;5111352;28;20633;-61
2020/12/07 09:07:41;;;;;;;18.53;13.07;;;;;;;;;;5110182;28;20453;-61
2020/12/07 09:10:07;;;;;;;18.43;13.63;;;;;;;;;;5093266;28;20417;-61
2020/12/07 09:12:33;;;;;;;18.47;13.30;;;;;;;;;;5111410;28;20533;-61
2020/12/07 09:14:59;;;;;;;18.87;13.33;;;;;;;;;;5108615;28;20195;-62
2020/12/07 09:17:25;;;;;;;20.47;14.13;;;;;;;;;;5111330;28;20532;-61
2020/12/07 09:19:51;;;;;;;19.67;13.80;;;;;;;;;;5117666;27;20194;-61
2020/12/07 09:22:17;;;;;;;17.60;13.77;;;;;;;;;;5116120;27;20215;-63
2020/12/07 09:24:43;;;;;;;20.00;14.07;;;;;;;;;;5090785;28;20171;-61
2020/12/07 09:27:09;;;;;;;18.13;13.57;;;;;;;;;;5091031;28;20168;-61
2020/12/07 09:29:35;;;;;;;21.57;15.37;;;;;;;;;;5091064;28;20560;-60
2020/12/07 09:32:01;;;;;;;21.67;15.10;;;;;;;;;;5086680;28;20973;-61
2020/12/07 09:34:27;;;;;;;20.73;15.10;;;;;;;;;;5110348;28;20401;-62
2020/12/07 09:36:53;;;;;;;22.10;15.23;;;;;;;;;;5110195;28;20172;-61
2020/12/07 09:39:19;;;;;;;22.83;14.43;;;;;;;;;;5090816;28;20537;-60
2020/12/07 09:41:45;;;;;;;23.40;16.40;;;;;;;;;;5108570;28;20634;-60
2020/12/07 09:44:11;;;;;;;23.67;17.10;;;;;;;;;;5111098;28;20409;-61
2020/12/07 09:46:37;;;;;;;18.70;15.17;;;;;;;;;;5092714;28;20183;-60
2020/12/07 09:49:03;;;;;;;22.23;15.17;;;;;;;;;;5093323;27;20229;-60
2020/12/07 09:51:29;;;;;;;24.90;16.87;;;;;;;;;;5125803;27;20179;-60
2020/12/07 09:53:55;;;;;;;22.50;16.33;;;;;;;;;;5109932;27;20967;-60
2020/12/07 09:56:24;;;;;;;24.97;15.60;;;;;;;;;;5121628;27;20415;-60
2020/12/07 09:58:50;;;;;;;22.97;16.10;;;;;;;;;;5111484;27;20648;-62
2020/12/07 10:01:16;;;;;;;22.30;16.23;;;;;;;;;;5080885;28;20935;-61
2020/12/07 10:03:42;;;;;;;25.27;18.33;;;;;;;;;;5122551;27;20487;-60
2020/12/07 10:06:08;;;;;;;22.10;15.67;;;;;;;;;;5092228;28;20178;-60
2020/12/07 10:08:34;;;;;;;24.43;16.57;;;;;;;;;;5113598;28;20456;-61
2020/12/07 10:11:00;;;;;;;22.00;16.60;;;;;;;;;;5124580;27;20176;-61
2020/12/07 10:13:27;;;;;;;23.77;17.40;;;;;;;;;;5094371;28;21225;-61
2020/12/07 10:15:53;;;;;;;23.43;16.43;;;;;;;;;;5113019;28;20637;-61
2020/12/07 10:18:19;;;;;;;25.13;16.77;;;;;;;;;;5113845;28;20858;-61
2020/12/07 10:20:46;;;;;;;28.07;17.87;;;;;;;;;;5106750;28;20417;-61
2020/12/07 10:23:12;;;;;;;24.63;18.43;;;;;;;;;;5092867;28;20182;-61
2020/12/07 10:25:38;;;;;;;24.73;18.10;;;;;;;;;;5092866;28;20420;-61
2020/12/07 10:28:05;;;;;;;23.47;18.67;;;;;;;;;;5081623;28;20528;-61
2020/12/07 10:30:31;;;;;;;24.23;17.97;;;;;;;;;;5108327;28;20433;-61
2020/12/07 10:32:57;;;;;;;24.37;17.77;;;;;;;;;;5092836;28;20471;-61
2020/12/07 10:35:23;;;;;;;23.80;17.90;;;;;;;;;;5110332;28;20175;-61
2020/12/07 10:37:49;;;;;;;24.27;18.43;;;;;;;;;;5111022;28;20202;-61
2020/12/07 10:40:15;;;;;;;23.33;18.60;;;;;;;;;;5110955;28;20174;-61
2020/12/07 10:42:41;;;;;;;24.30;18.83;;;;;;;;;;5101801;28;20187;-62
2020/12/07 10:45:07;;;;;;;25.80;18.03;;;;;;;;;;5091465;28;20244;-61
2020/12/07 10:47:32;;;;;;;23.63;18.50;;;;;;;;;;5113942;28;20457;-61
2020/12/07 10:49:59;;;;;;;25.23;18.47;;;;;;;;;;5109046;28;20238;-62
2020/12/07 10:52:25;;;;;;;23.97;18.57;;;;;;;;;;5111037;27;20686;-61
2020/12/07 10:54:51;;;;;;;27.03;18.10;;;;;;;;;;5115184;27;20444;-61
2020/12/07 10:57:16;;;;;;;26.60;18.53;;;;;;;;;;5110342;28;20171;-61
2020/12/07 10:59:42;;;;;;;23.63;17.50;;;;;;;;;;5096350;28;20179;-62
2020/12/07 11:02:08;;;;;;;27.60;19.40;;;;;;;;;;5113932;28;20242;-62
2020/12/07 11:04:34;;;;;;;23.83;18.13;;;;;;;;;;5114650;28;20640;-62
2020/12/07 11:07:02;;;;;;;21.90;17.03;;;;;;;;;;5113249;27;20187;-61
2020/12/07 11:09:28;;;;;;;22.97;18.20;;;;;;;;;;5095398;28;20209;-62
2020/12/07 11:12:01;;;;;;;22.73;17.17;;;;;;;;;;5104631;28;20903;-61
2020/12/07 11:14:27;;;;;;;25.67;17.97;;;;;;;;;;5095763;28;20610;-61
2020/12/07 11:16:53;;;;;;;25.93;18.00;;;;;;;;;;5112325;28;20447;-61
2020/12/07 11:19:19;;;;;;;25.50;17.97;;;;;;;;;;5111174;27;20436;-61
2020/12/07 11:21:45;;;;;;;24.97;18.43;;;;;;;;;;5113446;28;20408;-61
2020/12/07 11:24:11;;;;;;;24.33;17.73;;;;;;;;;;5134585;27;20424;-61
2020/12/07 11:26:37;;;;;;;23.53;17.40;;;;;;;;;;5107404;28;20409;-61
2020/12/07 11:29:03;;;;;;;27.27;17.17;;;;;;;;;;5095198;28;20448;-64
2020/12/07 11:31:29;;;;;;;24.73;17.13;;;;;;;;;;5115293;28;20191;-61
2020/12/07 11:33:55;;;;;;;23.40;16.03;;;;;;;;;;5114196;27;20895;-61
2020/12/07 11:36:21;;;;;;;22.97;17.13;;;;;;;;;;5113867;27;20179;-61
2020/12/07 11:38:55;;;;;;;24.93;16.13;;;;;;;;;;5114093;28;20175;-61
2020/12/07 11:41:41;;;;;;;23.17;16.60;;;;;;;;;;5113695;28;20201;-61
2020/12/07 11:44:12;;;;;;;24.13;16.23;;;;;;;;;;5090978;28;20769;-61
2020/12/07 11:49:10;;;;;;;24.07;16.80;;;;;;;;;;5107414;28;20455;-61
2020/12/07 11:51:38;;;;;;;25.17;16.07;;;;;;;;;;5093464;28;20175;-61
2020/12/07 11:54:04;;;;;;;23.27;16.40;;;;;;;;;;5104668;28;20182;-61
2020/12/07 11:56:34;;;;;;;21.70;16.70;;;;;;;;;;5091848;28;20398;-61
2020/12/07 11:59:00;;;;;;;22.37;15.73;;;;;;;;;;5086227;28;20218;-61
2020/12/07 12:01:26;;;;;;;23.00;16.73;;;;;;;;;;5113254;28;20871;-61
2020/12/07 12:03:53;;;;;;;23.60;15.50;;;;;;;;;;5112314;28;20801;-61
2020/12/07 12:06:20;;;;;;;22.77;16.37;;;;;;;;;;5113356;28;20404;-63
2020/12/07 12:08:46;;;;;;;22.27;16.10;;;;;;;;;;5117165;27;20217;-60
2020/12/07 12:11:12;;;;;;;23.40;17.23;;;;;;;;;;5112594;28;20401;-61
2020/12/07 12:13:38;;;;;;;23.10;16.70;;;;;;;;;;5099875;28;20176;-61
2020/12/07 12:16:04;;;;;;;22.77;17.03;;;;;;;;;;5092312;28;20261;-61
2020/12/07 12:18:30;;;;;;;25.80;16.53;;;;;;;;;;5101137;28;20209;-61
2020/12/07 12:20:56;;;;;;;23.37;16.07;;;;;;;;;;5113669;27;20171;-61
2020/12/07 12:23:22;;;;;;;21.47;15.57;;;;;;;;;;5112282;28;20478;-61
2020/12/07 12:25:48;;;;;;;23.63;15.97;;;;;;;;;;5112326;28;20186;-60
2020/12/07 12:28:14;;;;;;;21.43;14.67;;;;;;;;;;5112098;28;20231;-60
2020/12/07 12:30:42;;;;;;;22.97;15.63;;;;;;;;;;5093299;28;20210;-61
2020/12/07 12:33:08;;;;;;;19.83;14.83;;;;;;;;;;5111440;28;20405;-61
2020/12/07 12:35:34;;;;;;;22.40;15.70;;;;;;;;;;5112304;28;20393;-62
2020/12/07 12:38:00;;;;;;;21.30;14.50;;;;;;;;;;5123509;27;20991;-61
2020/12/07 12:40:26;;;;;;;19.37;14.53;;;;;;;;;;5132820;27;20760;-60
2020/12/07 12:42:52;;;;;;;22.53;14.37;;;;;;;;;;5132660;27;20401;-60
2020/12/07 12:45:18;;;;;;;24.03;15.83;;;;;;;;;;5074823;28;20425;-60
2020/12/07 12:47:44;;;;;;;21.80;15.13;;;;;;;;;;5091899;28;20504;-61
2020/12/07 12:50:10;;;;;;;20.07;14.73;;;;;;;;;;5092053;28;20566;-61
2020/12/07 12:52:38;;;;;;;22.57;14.87;;;;;;;;;;5101422;28;20167;-60
2020/12/07 12:55:04;;;;;;;22.17;15.17;;;;;;;;;;5083090;28;20425;-61
2020/12/07 12:57:30;;;;;;;24.27;15.07;;;;;;;;;;5110795;28;20532;-61
2020/12/07 12:59:59;;;;;;;21.63;14.50;;;;;;;;;;5111542;28;20412;-61
2020/12/07 13:02:25;;;;;;;24.37;15.33;;;;;;;;;;5091792;28;20475;-61
2020/12/07 13:04:51;;;;;;;21.07;14.77;;;;;;;;;;5110901;28;20209;-63
2020/12/07 13:07:17;;;;;;;21.43;14.60;;;;;;;;;;5117373;27;20431;-61
2020/12/07 13:09:43;;;;;;;19.53;13.83;;;;;;;;;;5091526;28;20182;-61
2020/12/07 13:12:09;;;;;;;17.43;13.20;;;;;;;;;;5111625;28;20827;-61
2020/12/07 13:14:35;;;;;;;20.50;14.27;;;;;;;;;;5111533;28;20257;-61
2020/12/07 13:17:07;;;;;;;22.07;14.00;;;;;;;;;;5090095;28;20286;-61
2020/12/07 13:19:33;;;;;;;21.37;13.97;;;;;;;;;;5072809;28;20615;-61
2020/12/07 13:29:39;;;;;;;19.37;14.03;;;;;;;;;;5105591;28;20457;-60
2020/12/07 13:32:05;;;;;;;19.73;13.50;;;;;;;;;;5072493;28;20303;-61
2020/12/07 13:34:31;;;;;;;20.40;14.17;;;;;;;;;;5097094;28;20418;-61
2020/12/07 13:36:57;;;;;;;20.50;12.93;;;;;;;;;;5113041;27;20428;-61
2020/12/07 13:39:23;;;;;;;18.37;13.97;;;;;;;;;;5131946;27;20449;-61
2020/12/07 13:41:49;;;;;;;19.90;12.10;;;;;;;;;;5110946;28;20197;-61
2020/12/07 13:44:15;;;;;;;20.90;13.17;;;;;;;;;;5111048;27;20183;-63
2020/12/07 13:46:41;;;;;;;17.93;11.73;;;;;;;;;;5098498;28;20198;-61
2020/12/07 13:49:07;;;;;;;19.50;12.20;;;;;;;;;;5079471;28;20468;-61
2020/12/07 13:51:33;;;;;;;20.07;13.33;;;;;;;;;;5101878;27;20258;-60
2020/12/07 13:54:00;;;;;;;18.33;12.50;;;;;;;;;;5104485;27;20189;-61
2020/12/07 13:56:26;;;;;;;16.27;10.87;;;;;;;;;;5096244;28;20486;-61
2020/12/07 13:58:54;;;;;;;18.07;12.40;;;;;;;;;;5096006;28;20464;-62
2020/12/07 14:01:20;;;;;;;17.17;11.00;;;;;;;;;;5099049;28;20525;-62
2020/12/07 14:03:53;;;;;;;16.90;11.13;;;;;;;;;;5084242;28;20552;-61
2020/12/07 14:06:29;;;;;;;15.27;10.53;;;;;;;;;;5099533;28;20271;-61
2020/12/07 14:08:58;;;;;;;13.87;9.63;;;;;;;;;;5108810;28;20494;-61
2020/12/07 14:11:24;;;;;;;15.67;10.83;;;;;;;;;;5102705;28;20980;-61
2020/12/07 14:13:50;;;;;;;15.97;11.33;;;;;;;;;;5131388;27;20404;-61
2020/12/07 14:16:19;;;;;;;13.20;10.10;;;;;;;;;;5122042;27;20601;-61
2020/12/07 14:19:08;;;;;;;16.27;10.87;;;;;;;;;;5094707;28;20860;-61
2020/12/07 14:24:08;;;;;;;15.63;10.03;;;;;;;;;;5111106;28;20449;-61
2020/12/07 14:26:43;;;;;;;12.60;9.20;;;;;;;;;;5119294;28;20469;-61
2020/12/07 14:40:13;;;;;;;12.03;8.77;;;;;;;;;;5102043;28;20436;-61
2020/12/07 14:42:40;;;;;;;12.67;8.80;;;;;;;;;;5108379;28;20803;-61
2020/12/07 14:45:08;;;;;;;12.87;8.80;;;;;;;;;;5108965;28;20883;-61
2020/12/07 14:47:39;;;;;;;11.83;9.90;;;;;;;;;;5093170;28;20542;-61
2020/12/07 14:52:50;;;;;;;13.80;9.50;;;;;;;;;;5116593;28;20415;-61
2020/12/07 14:58:39;;;;;;;12.63;8.63;;;;;;;;;;5097061;28;20428;-62
2020/12/07 15:06:17;;;;;;;11.47;8.87;;;;;;;;;;5104477;28;21290;-61
2020/12/07 15:11:39;;;;;;;10.63;7.53;;;;;;;;;;5104699;28;20393;-61
2020/12/07 15:14:05;;;;;;;9.43;7.77;;;;;;;;;;5096864;28;21114;-61
2020/12/07 15:16:32;;;;;;;15.53;8.40;;;;;;;;;;5106569;28;20466;-61
2020/12/07 15:18:58;;;;;;;11.50;8.23;;;;;;;;;;5108640;28;20781;-61